sensor_id;sensor_type;location;lat;lon;timestamp;P1;durP1;ratioP1;P2;durP2;ratioP2
14939;SDS011;11825;51.898;8.202;2023-02-26T00:09:11;5.40;;;2.67;;
14939;SDS011;11825;51.898;8.202;2023-02-26T00:14:38;7.00;;;2.67;;
14939;SDS011;11825;51.898;8.202;2023-02-26T00:19:54;3.27;;;2.40;;
14939;SDS011;11825;51.898;8.202;2023-02-26T00:25:10;4.17;;;2.50;;
14939;SDS011;11825;51.898;8.202;2023-02-26T00:30:18;3.83;;;2.13;;
14939;SDS011;11825;51.898;8.202;2023-02-26T00:35:36;4.27;;;1.93;;
14939;SDS011;11825;51.898;8.202;2023-02-26T00:58:43;3.17;;;2.10;;
14939;SDS011;11825;51.898;8.202;2023-02-26T01:03:47;1.90;;;1.70;;
14939;SDS011;11825;51.898;8.202;2023-02-26T01:09:33;2.23;;;1.43;;
14939;SDS011;11825;51.898;8.202;2023-02-26T01:21:07;3.67;;;2.30;;
14939;SDS011;11825;51.898;8.202;2023-02-26T01:26:27;2.63;;;1.90;;
14939;SDS011;11825;51.898;8.202;2023-02-26T01:42:42;2.83;;;1.80;;
14939;SDS011;11825;51.898;8.202;2023-02-26T01:53:42;2.03;;;1.67;;
14939;SDS011;11825;51.898;8.202;2023-02-26T01:58:46;3.73;;;2.07;;
14939;SDS011;11825;51.898;8.202;2023-02-26T02:04:02;3.20;;;1.73;;
14939;SDS011;11825;51.898;8.202;2023-02-26T02:09:35;3.43;;;1.97;;
14939;SDS011;11825;51.898;8.202;2023-02-26T02:27:26;6.63;;;2.20;;
14939;SDS011;11825;51.898;8.202;2023-02-26T02:38:44;3.23;;;1.60;;
14939;SDS011;11825;51.898;8.202;2023-02-26T02:44:12;2.70;;;1.50;;
14939;SDS011;11825;51.898;8.202;2023-02-26T02:49:21;4.73;;;2.20;;
14939;SDS011;11825;51.898;8.202;2023-02-26T02:55:13;4.03;;;2.20;;
14939;SDS011;11825;51.898;8.202;2023-02-26T03:06:41;4.60;;;1.80;;
14939;SDS011;11825;51.898;8.202;2023-02-26T03:12:42;2.20;;;1.43;;
14939;SDS011;11825;51.898;8.202;2023-02-26T03:23:35;2.20;;;1.70;;
14939;SDS011;11825;51.898;8.202;2023-02-26T03:40:52;1.87;;;1.67;;
14939;SDS011;11825;51.898;8.202;2023-02-26T03:46:48;4.33;;;1.63;;
14939;SDS011;11825;51.898;8.202;2023-02-26T03:52:11;3.00;;;2.10;;
14939;SDS011;11825;51.898;8.202;2023-02-26T03:57:15;4.40;;;2.33;;
14939;SDS011;11825;51.898;8.202;2023-02-26T04:08:50;2.23;;;1.70;;
14939;SDS011;11825;51.898;8.202;2023-02-26T04:32:30;1.80;;;1.50;;
14939;SDS011;11825;51.898;8.202;2023-02-26T04:37:36;3.40;;;1.93;;
14939;SDS011;11825;51.898;8.202;2023-02-26T04:43:01;6.77;;;4.33;;
14939;SDS011;11825;51.898;8.202;2023-02-26T04:48:08;5.20;;;2.33;;
14939;SDS011;11825;51.898;8.202;2023-02-26T04:53:18;2.87;;;1.20;;
14939;SDS011;11825;51.898;8.202;2023-02-26T04:58:56;3.33;;;2.00;;
14939;SDS011;11825;51.898;8.202;2023-02-26T05:04:17;4.47;;;2.00;;
14939;SDS011;11825;51.898;8.202;2023-02-26T05:09:42;4.27;;;2.00;;
14939;SDS011;11825;51.898;8.202;2023-02-26T05:14:52;6.43;;;1.90;;
14939;SDS011;11825;51.898;8.202;2023-02-26T05:20:34;3.60;;;1.60;;
14939;SDS011;11825;51.898;8.202;2023-02-26T05:25:42;6.53;;;2.50;;
14939;SDS011;11825;51.898;8.202;2023-02-26T05:31:12;6.10;;;1.70;;
14939;SDS011;11825;51.898;8.202;2023-02-26T05:36:34;4.20;;;1.87;;
14939;SDS011;11825;51.898;8.202;2023-02-26T05:42:11;1.37;;;1.07;;
14939;SDS011;11825;51.898;8.202;2023-02-26T05:47:46;3.60;;;1.60;;
14939;SDS011;11825;51.898;8.202;2023-02-26T05:53:05;3.17;;;1.67;;
14939;SDS011;11825;51.898;8.202;2023-02-26T05:58:18;3.17;;;1.77;;
14939;SDS011;11825;51.898;8.202;2023-02-26T06:03:30;7.03;;;2.63;;
14939;SDS011;11825;51.898;8.202;2023-02-26T06:08:44;2.27;;;1.47;;
14939;SDS011;11825;51.898;8.202;2023-02-26T06:13:48;5.50;;;2.40;;
14939;SDS011;11825;51.898;8.202;2023-02-26T06:19:12;4.93;;;2.27;;
14939;SDS011;11825;51.898;8.202;2023-02-26T06:24:38;6.27;;;2.20;;
14939;SDS011;11825;51.898;8.202;2023-02-26T06:29:40;6.27;;;1.93;;
14939;SDS011;11825;51.898;8.202;2023-02-26T06:34:49;5.27;;;3.10;;
14939;SDS011;11825;51.898;8.202;2023-02-26T06:40:13;6.33;;;1.90;;
14939;SDS011;11825;51.898;8.202;2023-02-26T06:45:15;4.07;;;1.40;;
14939;SDS011;11825;51.898;8.202;2023-02-26T06:50:19;3.63;;;1.97;;
14939;SDS011;11825;51.898;8.202;2023-02-26T06:55:55;4.03;;;2.10;;
14939;SDS011;11825;51.898;8.202;2023-02-26T07:01:03;3.03;;;2.00;;
14939;SDS011;11825;51.898;8.202;2023-02-26T07:06:24;5.47;;;3.53;;
14939;SDS011;11825;51.898;8.202;2023-02-26T07:11:28;5.17;;;2.77;;
14939;SDS011;11825;51.898;8.202;2023-02-26T07:22:31;3.33;;;1.83;;
14939;SDS011;11825;51.898;8.202;2023-02-26T07:27:42;6.00;;;3.93;;
14939;SDS011;11825;51.898;8.202;2023-02-26T07:32:46;7.40;;;3.53;;
14939;SDS011;11825;51.898;8.202;2023-02-26T07:37:51;5.67;;;3.10;;
14939;SDS011;11825;51.898;8.202;2023-02-26T07:42:55;5.53;;;2.60;;
14939;SDS011;11825;51.898;8.202;2023-02-26T07:48:01;5.83;;;2.20;;
14939;SDS011;11825;51.898;8.202;2023-02-26T07:53:12;2.17;;;1.83;;
14939;SDS011;11825;51.898;8.202;2023-02-26T07:58:15;4.80;;;2.17;;
14939;SDS011;11825;51.898;8.202;2023-02-26T08:03:24;8.27;;;2.37;;
14939;SDS011;11825;51.898;8.202;2023-02-26T08:08:26;3.33;;;2.20;;
14939;SDS011;11825;51.898;8.202;2023-02-26T08:13:30;4.47;;;2.70;;
14939;SDS011;11825;51.898;8.202;2023-02-26T08:18:36;4.93;;;2.00;;
14939;SDS011;11825;51.898;8.202;2023-02-26T08:23:41;3.97;;;1.87;;
14939;SDS011;11825;51.898;8.202;2023-02-26T08:28:44;3.17;;;1.20;;
14939;SDS011;11825;51.898;8.202;2023-02-26T08:34:00;4.77;;;1.80;;
14939;SDS011;11825;51.898;8.202;2023-02-26T08:39:12;2.43;;;1.20;;
14939;SDS011;11825;51.898;8.202;2023-02-26T08:44:30;3.17;;;1.47;;
14939;SDS011;11825;51.898;8.202;2023-02-26T08:50:08;7.43;;;1.17;;
14939;SDS011;11825;51.898;8.202;2023-02-26T08:55:47;1.83;;;1.20;;
14939;SDS011;11825;51.898;8.202;2023-02-26T09:00:57;3.93;;;1.27;;
14939;SDS011;11825;51.898;8.202;2023-02-26T09:06:20;3.30;;;2.00;;
14939;SDS011;11825;51.898;8.202;2023-02-26T09:11:48;2.67;;;1.70;;
14939;SDS011;11825;51.898;8.202;2023-02-26T09:17:03;2.80;;;1.20;;
14939;SDS011;11825;51.898;8.202;2023-02-26T09:22:27;6.27;;;2.00;;
14939;SDS011;11825;51.898;8.202;2023-02-26T09:27:45;5.20;;;2.70;;
14939;SDS011;11825;51.898;8.202;2023-02-26T09:33:01;5.00;;;2.63;;
14939;SDS011;11825;51.898;8.202;2023-02-26T09:38:28;8.17;;;3.37;;
14939;SDS011;11825;51.898;8.202;2023-02-26T09:55:35;2.27;;;1.17;;
14939;SDS011;11825;51.898;8.202;2023-02-26T10:01:25;1.80;;;1.23;;
14939;SDS011;11825;51.898;8.202;2023-02-26T10:07:20;1.33;;;1.07;;
14939;SDS011;11825;51.898;8.202;2023-02-26T10:30:57;1.33;;;1.20;;
14939;SDS011;11825;51.898;8.202;2023-02-26T10:36:55;2.27;;;1.33;;
14939;SDS011;11825;51.898;8.202;2023-02-26T10:42:22;3.53;;;1.03;;
14939;SDS011;11825;51.898;8.202;2023-02-26T10:48:24;1.63;;;0.87;;
14939;SDS011;11825;51.898;8.202;2023-02-26T11:00:43;1.23;;;1.13;;
14939;SDS011;11825;51.898;8.202;2023-02-26T11:13:02;1.40;;;0.93;;
14939;SDS011;11825;51.898;8.202;2023-02-26T11:18:41;1.10;;;0.90;;
14939;SDS011;11825;51.898;8.202;2023-02-26T11:24:47;3.20;;;0.60;;
14939;SDS011;11825;51.898;8.202;2023-02-26T11:30:38;1.27;;;1.00;;
14939;SDS011;11825;51.898;8.202;2023-02-26T11:35:50;0.70;;;0.70;;
14939;SDS011;11825;51.898;8.202;2023-02-26T12:04:44;2.03;;;1.50;;
14939;SDS011;11825;51.898;8.202;2023-02-26T12:46:47;1.10;;;0.90;;
14939;SDS011;11825;51.898;8.202;2023-02-26T13:03:46;2.27;;;0.80;;
14939;SDS011;11825;51.898;8.202;2023-02-26T13:20:45;1.13;;;0.60;;
14939;SDS011;11825;51.898;8.202;2023-02-26T13:26:38;1.23;;;0.80;;
14939;SDS011;11825;51.898;8.202;2023-02-26T13:32:42;2.17;;;0.67;;
14939;SDS011;11825;51.898;8.202;2023-02-26T13:56:16;2.60;;;1.20;;
14939;SDS011;11825;51.898;8.202;2023-02-26T14:20:14;1.80;;;0.80;;
14939;SDS011;11825;51.898;8.202;2023-02-26T14:26:35;1.27;;;0.80;;
14939;SDS011;11825;51.898;8.202;2023-02-26T14:38:05;2.00;;;0.90;;
14939;SDS011;11825;51.898;8.202;2023-02-26T14:49:36;2.70;;;1.23;;
14939;SDS011;11825;51.898;8.202;2023-02-26T14:54:52;3.43;;;1.33;;
14939;SDS011;11825;51.898;8.202;2023-02-26T15:12:28;1.10;;;1.00;;
14939;SDS011;11825;51.898;8.202;2023-02-26T15:24:24;2.43;;;1.07;;
14939;SDS011;11825;51.898;8.202;2023-02-26T15:29:41;1.10;;;0.73;;
14939;SDS011;11825;51.898;8.202;2023-02-26T15:41:34;2.43;;;0.93;;
14939;SDS011;11825;51.898;8.202;2023-02-26T15:46:38;1.83;;;1.00;;
14939;SDS011;11825;51.898;8.202;2023-02-26T15:51:58;1.40;;;1.03;;
14939;SDS011;11825;51.898;8.202;2023-02-26T16:08:43;1.73;;;1.00;;
14939;SDS011;11825;51.898;8.202;2023-02-26T16:13:45;3.00;;;1.30;;
14939;SDS011;11825;51.898;8.202;2023-02-26T16:18:55;1.67;;;0.97;;
14939;SDS011;11825;51.898;8.202;2023-02-26T16:24:54;0.70;;;0.70;;
14939;SDS011;11825;51.898;8.202;2023-02-26T16:30:37;1.50;;;0.90;;
14939;SDS011;11825;51.898;8.202;2023-02-26T16:35:47;1.23;;;0.77;;
14939;SDS011;11825;51.898;8.202;2023-02-26T16:41:05;1.23;;;0.80;;
14939;SDS011;11825;51.898;8.202;2023-02-26T16:46:57;2.93;;;0.83;;
14939;SDS011;11825;51.898;8.202;2023-02-26T16:52:02;5.53;;;1.00;;
14939;SDS011;11825;51.898;8.202;2023-02-26T17:03:32;1.00;;;0.80;;
14939;SDS011;11825;51.898;8.202;2023-02-26T17:08:45;0.70;;;0.70;;
14939;SDS011;11825;51.898;8.202;2023-02-26T17:19:49;2.60;;;1.30;;
14939;SDS011;11825;51.898;8.202;2023-02-26T17:24:57;1.07;;;0.93;;
14939;SDS011;11825;51.898;8.202;2023-02-26T17:30:14;3.13;;;1.10;;
14939;SDS011;11825;51.898;8.202;2023-02-26T17:35:21;0.80;;;0.80;;
14939;SDS011;11825;51.898;8.202;2023-02-26T17:40:32;3.50;;;2.93;;
14939;SDS011;11825;51.898;8.202;2023-02-26T17:46:08;2.47;;;1.30;;
14939;SDS011;11825;51.898;8.202;2023-02-26T17:56:59;1.43;;;1.13;;
14939;SDS011;11825;51.898;8.202;2023-02-26T18:02:41;1.10;;;0.90;;
14939;SDS011;11825;51.898;8.202;2023-02-26T18:07:41;0.80;;;0.77;;
14939;SDS011;11825;51.898;8.202;2023-02-26T18:13:46;1.77;;;1.50;;
14939;SDS011;11825;51.898;8.202;2023-02-26T18:19:10;2.00;;;0.90;;
14939;SDS011;11825;51.898;8.202;2023-02-26T18:24:20;1.10;;;0.90;;
14939;SDS011;11825;51.898;8.202;2023-02-26T18:29:35;1.97;;;0.73;;
14939;SDS011;11825;51.898;8.202;2023-02-26T18:34:55;2.23;;;0.90;;
14939;SDS011;11825;51.898;8.202;2023-02-26T18:40:15;4.23;;;1.93;;
14939;SDS011;11825;51.898;8.202;2023-02-26T18:50:55;3.40;;;2.53;;
14939;SDS011;11825;51.898;8.202;2023-02-26T18:56:28;7.47;;;3.50;;
14939;SDS011;11825;51.898;8.202;2023-02-26T19:08:05;7.50;;;3.63;;
14939;SDS011;11825;51.898;8.202;2023-02-26T19:13:48;5.60;;;2.70;;
14939;SDS011;11825;51.898;8.202;2023-02-26T19:24:46;7.17;;;2.40;;
14939;SDS011;11825;51.898;8.202;2023-02-26T19:29:59;4.33;;;2.30;;
14939;SDS011;11825;51.898;8.202;2023-02-26T19:35:09;3.00;;;2.13;;
14939;SDS011;11825;51.898;8.202;2023-02-26T19:40:24;1.63;;;1.50;;
14939;SDS011;11825;51.898;8.202;2023-02-26T19:45:36;3.70;;;2.33;;
14939;SDS011;11825;51.898;8.202;2023-02-26T19:50:55;5.30;;;2.60;;
14939;SDS011;11825;51.898;8.202;2023-02-26T19:56:09;2.87;;;2.27;;
14939;SDS011;11825;51.898;8.202;2023-02-26T20:01:22;5.10;;;2.57;;
14939;SDS011;11825;51.898;8.202;2023-02-26T20:06:35;6.37;;;3.17;;
14939;SDS011;11825;51.898;8.202;2023-02-26T20:17:41;9.53;;;3.33;;
14939;SDS011;11825;51.898;8.202;2023-02-26T20:22:51;3.83;;;2.40;;
14939;SDS011;11825;51.898;8.202;2023-02-26T20:27:59;6.63;;;3.07;;
14939;SDS011;11825;51.898;8.202;2023-02-26T20:33:24;6.23;;;3.47;;
14939;SDS011;11825;51.898;8.202;2023-02-26T20:38:31;3.97;;;2.97;;
14939;SDS011;11825;51.898;8.202;2023-02-26T20:43:35;5.73;;;3.00;;
14939;SDS011;11825;51.898;8.202;2023-02-26T20:48:54;6.03;;;3.00;;
14939;SDS011;11825;51.898;8.202;2023-02-26T20:54:00;5.80;;;3.10;;
14939;SDS011;11825;51.898;8.202;2023-02-26T20:59:08;7.50;;;5.40;;
14939;SDS011;11825;51.898;8.202;2023-02-26T21:04:12;8.63;;;4.20;;
14939;SDS011;11825;51.898;8.202;2023-02-26T21:09:30;5.90;;;4.67;;
14939;SDS011;11825;51.898;8.202;2023-02-26T21:14:41;10.97;;;7.57;;
14939;SDS011;11825;51.898;8.202;2023-02-26T21:19:43;8.67;;;5.57;;
14939;SDS011;11825;51.898;8.202;2023-02-26T21:24:45;7.67;;;5.80;;
14939;SDS011;11825;51.898;8.202;2023-02-26T21:30:20;7.47;;;4.43;;
14939;SDS011;11825;51.898;8.202;2023-02-26T21:35:31;5.77;;;4.23;;
14939;SDS011;11825;51.898;8.202;2023-02-26T21:41:16;5.43;;;3.87;;
14939;SDS011;11825;51.898;8.202;2023-02-26T21:47:21;7.77;;;4.20;;
14939;SDS011;11825;51.898;8.202;2023-02-26T21:59:09;8.97;;;5.10;;
14939;SDS011;11825;51.898;8.202;2023-02-26T22:04:15;7.90;;;5.33;;
14939;SDS011;11825;51.898;8.202;2023-02-26T22:15:20;5.60;;;4.77;;
14939;SDS011;11825;51.898;8.202;2023-02-26T22:21:22;4.60;;;4.10;;
14939;SDS011;11825;51.898;8.202;2023-02-26T22:26:40;12.67;;;5.93;;
14939;SDS011;11825;51.898;8.202;2023-02-26T22:37:48;8.17;;;5.47;;
14939;SDS011;11825;51.898;8.202;2023-02-26T22:43:07;4.83;;;4.00;;
14939;SDS011;11825;51.898;8.202;2023-02-26T22:48:26;6.47;;;3.40;;
14939;SDS011;11825;51.898;8.202;2023-02-26T23:06:10;4.40;;;3.13;;
14939;SDS011;11825;51.898;8.202;2023-02-26T23:11:26;6.70;;;4.43;;
14939;SDS011;11825;51.898;8.202;2023-02-26T23:59:47;7.60;;;3.40;;
